sensor_id;sensor_type;location;lat;lon;timestamp;P1;durP1;ratioP1;P2;durP2;ratioP2
31347;SDS011;21711;49.708;18.568;2022-09-09T00:00:46;1.90;;;1.58;;
31347;SDS011;21711;49.708;18.568;2022-09-09T00:03:26;2.20;;;1.55;;
31347;SDS011;21711;49.708;18.568;2022-09-09T00:06:08;5.80;;;1.63;;
31347;SDS011;21711;49.708;18.568;2022-09-09T00:14:49;2.30;;;1.80;;
31347;SDS011;21711;49.708;18.568;2022-09-09T00:20:12;2.80;;;1.50;;
31347;SDS011;21711;49.708;18.568;2022-09-09T00:22:57;2.50;;;2.03;;
31347;SDS011;21711;49.708;18.568;2022-09-09T00:26:08;2.45;;;1.75;;
31347;SDS011;21711;49.708;18.568;2022-09-09T00:31:38;4.00;;;2.05;;
31347;SDS011;21711;49.708;18.568;2022-09-09T00:34:13;4.00;;;1.63;;
31347;SDS011;21711;49.708;18.568;2022-09-09T00:36:49;3.00;;;2.25;;
31347;SDS011;21711;49.708;18.568;2022-09-09T00:44:55;2.13;;;1.63;;
31347;SDS011;21711;49.708;18.568;2022-09-09T00:47:50;3.13;;;1.90;;
31347;SDS011;21711;49.708;18.568;2022-09-09T00:55:56;2.53;;;1.73;;
31347;SDS011;21711;49.708;18.568;2022-09-09T00:58:48;6.55;;;2.05;;
31347;SDS011;21711;49.708;18.568;2022-09-09T01:01:36;1.90;;;1.60;;
31347;SDS011;21711;49.708;18.568;2022-09-09T01:04:09;3.83;;;1.75;;
31347;SDS011;21711;49.708;18.568;2022-09-09T01:06:43;6.00;;;2.03;;
31347;SDS011;21711;49.708;18.568;2022-09-09T01:09:22;2.45;;;2.05;;
31347;SDS011;21711;49.708;18.568;2022-09-09T01:12:16;2.70;;;2.13;;
31347;SDS011;21711;49.708;18.568;2022-09-09T01:15:17;2.47;;;1.98;;
31347;SDS011;21711;49.708;18.568;2022-09-09T01:23:48;4.95;;;2.00;;
31347;SDS011;21711;49.708;18.568;2022-09-09T01:26:53;6.05;;;2.15;;
31347;SDS011;21711;49.708;18.568;2022-09-09T01:29:27;5.93;;;2.50;;
31347;SDS011;21711;49.708;18.568;2022-09-09T01:31:56;3.38;;;2.22;;
31347;SDS011;21711;49.708;18.568;2022-09-09T01:34:31;3.00;;;2.22;;
31347;SDS011;21711;49.708;18.568;2022-09-09T01:37:06;7.00;;;2.75;;
31347;SDS011;21711;49.708;18.568;2022-09-09T01:39:40;4.57;;;2.78;;
31347;SDS011;21711;49.708;18.568;2022-09-09T01:42:14;4.47;;;2.92;;
31347;SDS011;21711;49.708;18.568;2022-09-09T01:44:44;3.38;;;2.50;;
31347;SDS011;21711;49.708;18.568;2022-09-09T01:47:11;2.58;;;2.38;;
31347;SDS011;21711;49.708;18.568;2022-09-09T01:49:53;3.65;;;2.50;;
31347;SDS011;21711;49.708;18.568;2022-09-09T01:52:24;2.60;;;2.40;;
31347;SDS011;21711;49.708;18.568;2022-09-09T01:54:51;4.82;;;2.63;;
31347;SDS011;21711;49.708;18.568;2022-09-09T02:00:26;3.97;;;3.58;;
31347;SDS011;21711;49.708;18.568;2022-09-09T02:05:55;4.63;;;3.83;;
31347;SDS011;21711;49.708;18.568;2022-09-09T02:08:52;6.25;;;3.65;;
31347;SDS011;21711;49.708;18.568;2022-09-09T02:11:24;6.90;;;4.28;;
31347;SDS011;21711;49.708;18.568;2022-09-09T02:14:10;6.20;;;4.35;;
31347;SDS011;21711;49.708;18.568;2022-09-09T02:16:50;7.35;;;4.07;;
31347;SDS011;21711;49.708;18.568;2022-09-09T02:19:32;5.72;;;4.05;;
31347;SDS011;21711;49.708;18.568;2022-09-09T02:22:15;5.25;;;4.30;;
31347;SDS011;21711;49.708;18.568;2022-09-09T02:24:47;5.40;;;4.20;;
31347;SDS011;21711;49.708;18.568;2022-09-09T02:27:22;9.30;;;4.93;;
31347;SDS011;21711;49.708;18.568;2022-09-09T02:29:51;7.05;;;4.60;;
31347;SDS011;21711;49.708;18.568;2022-09-09T02:32:43;6.28;;;4.72;;
31347;SDS011;21711;49.708;18.568;2022-09-09T02:35:15;9.70;;;4.97;;
31347;SDS011;21711;49.708;18.568;2022-09-09T02:37:47;7.10;;;5.18;;
31347;SDS011;21711;49.708;18.568;2022-09-09T02:40:16;6.00;;;5.05;;
31347;SDS011;21711;49.708;18.568;2022-09-09T02:42:48;11.15;;;5.35;;
31347;SDS011;21711;49.708;18.568;2022-09-09T02:45:19;9.48;;;4.70;;
31347;SDS011;21711;49.708;18.568;2022-09-09T02:51:10;11.15;;;5.80;;
31347;SDS011;21711;49.708;18.568;2022-09-09T02:53:50;6.47;;;5.53;;
31347;SDS011;21711;49.708;18.568;2022-09-09T02:56:34;10.82;;;5.22;;
31347;SDS011;21711;49.708;18.568;2022-09-09T02:59:11;14.52;;;5.97;;
31347;SDS011;21711;49.708;18.568;2022-09-09T03:01:39;9.75;;;5.05;;
31347;SDS011;21711;49.708;18.568;2022-09-09T03:04:09;7.67;;;5.40;;
31347;SDS011;21711;49.708;18.568;2022-09-09T03:06:37;8.40;;;6.13;;
31347;SDS011;21711;49.708;18.568;2022-09-09T03:09:14;8.82;;;5.38;;
31347;SDS011;21711;49.708;18.568;2022-09-09T03:11:42;9.13;;;5.55;;
31347;SDS011;21711;49.708;18.568;2022-09-09T03:14:10;8.68;;;6.47;;
31347;SDS011;21711;49.708;18.568;2022-09-09T03:16:38;10.90;;;5.55;;
31347;SDS011;21711;49.708;18.568;2022-09-09T03:19:06;7.30;;;5.43;;
31347;SDS011;21711;49.708;18.568;2022-09-09T03:21:33;6.60;;;5.32;;
31347;SDS011;21711;49.708;18.568;2022-09-09T03:24:02;9.10;;;5.03;;
31347;SDS011;21711;49.708;18.568;2022-09-09T03:26:30;8.30;;;4.93;;
31347;SDS011;21711;49.708;18.568;2022-09-09T03:28:59;9.55;;;6.28;;
31347;SDS011;21711;49.708;18.568;2022-09-09T03:31:28;6.40;;;5.32;;
31347;SDS011;21711;49.708;18.568;2022-09-09T03:33:57;7.85;;;5.80;;
31347;SDS011;21711;49.708;18.568;2022-09-09T03:36:27;11.05;;;6.45;;
31347;SDS011;21711;49.708;18.568;2022-09-09T03:38:54;7.10;;;5.50;;
31347;SDS011;21711;49.708;18.568;2022-09-09T03:41:24;7.13;;;4.60;;
31347;SDS011;21711;49.708;18.568;2022-09-09T03:43:53;16.15;;;5.80;;
31347;SDS011;21711;49.708;18.568;2022-09-09T03:46:23;6.13;;;4.13;;
31347;SDS011;21711;49.708;18.568;2022-09-09T03:48:52;6.10;;;4.45;;
31347;SDS011;21711;49.708;18.568;2022-09-09T03:51:20;7.72;;;4.68;;
31347;SDS011;21711;49.708;18.568;2022-09-09T03:53:49;8.00;;;4.82;;
31347;SDS011;21711;49.708;18.568;2022-09-09T03:56:17;8.02;;;4.07;;
31347;SDS011;21711;49.708;18.568;2022-09-09T03:58:44;8.23;;;4.82;;
31347;SDS011;21711;49.708;18.568;2022-09-09T04:01:12;6.82;;;4.65;;
31347;SDS011;21711;49.708;18.568;2022-09-09T04:03:42;10.35;;;5.18;;
31347;SDS011;21711;49.708;18.568;2022-09-09T04:06:10;8.60;;;5.18;;
31347;SDS011;21711;49.708;18.568;2022-09-09T04:08:41;6.28;;;5.03;;
31347;SDS011;21711;49.708;18.568;2022-09-09T04:11:09;6.45;;;5.10;;
31347;SDS011;21711;49.708;18.568;2022-09-09T04:13:37;9.10;;;5.38;;
31347;SDS011;21711;49.708;18.568;2022-09-09T04:16:09;11.25;;;5.85;;
31347;SDS011;21711;49.708;18.568;2022-09-09T04:18:41;9.85;;;5.78;;
31347;SDS011;21711;49.708;18.568;2022-09-09T04:21:09;9.48;;;5.60;;
31347;SDS011;21711;49.708;18.568;2022-09-09T04:23:39;10.82;;;6.38;;
31347;SDS011;21711;49.708;18.568;2022-09-09T04:26:07;11.40;;;5.70;;
31347;SDS011;21711;49.708;18.568;2022-09-09T04:28:36;9.27;;;5.70;;
31347;SDS011;21711;49.708;18.568;2022-09-09T04:31:11;10.13;;;6.25;;
31347;SDS011;21711;49.708;18.568;2022-09-09T04:33:52;9.52;;;6.40;;
31347;SDS011;21711;49.708;18.568;2022-09-09T04:36:20;8.75;;;6.13;;
31347;SDS011;21711;49.708;18.568;2022-09-09T04:41:19;9.48;;;6.32;;
31347;SDS011;21711;49.708;18.568;2022-09-09T04:43:49;10.70;;;7.40;;
31347;SDS011;21711;49.708;18.568;2022-09-09T04:46:16;11.48;;;6.68;;
31347;SDS011;21711;49.708;18.568;2022-09-09T04:48:46;8.98;;;6.32;;
31347;SDS011;21711;49.708;18.568;2022-09-09T04:51:17;8.50;;;6.65;;
31347;SDS011;21711;49.708;18.568;2022-09-09T04:53:46;11.77;;;6.43;;
31347;SDS011;21711;49.708;18.568;2022-09-09T04:56:16;9.73;;;5.60;;
31347;SDS011;21711;49.708;18.568;2022-09-09T04:59:04;8.93;;;6.03;;
31347;SDS011;21711;49.708;18.568;2022-09-09T05:01:40;10.23;;;5.80;;
31347;SDS011;21711;49.708;18.568;2022-09-09T05:04:09;8.93;;;5.82;;
31347;SDS011;21711;49.708;18.568;2022-09-09T05:06:37;7.50;;;5.30;;
31347;SDS011;21711;49.708;18.568;2022-09-09T05:09:06;7.43;;;4.85;;
31347;SDS011;21711;49.708;18.568;2022-09-09T05:11:33;9.30;;;5.03;;
31347;SDS011;21711;49.708;18.568;2022-09-09T05:14:20;6.03;;;5.05;;
31347;SDS011;21711;49.708;18.568;2022-09-09T05:16:47;7.75;;;4.40;;
31347;SDS011;21711;49.708;18.568;2022-09-09T05:19:16;5.05;;;4.13;;
31347;SDS011;21711;49.708;18.568;2022-09-09T05:21:49;10.90;;;5.15;;
31347;SDS011;21711;49.708;18.568;2022-09-09T05:24:20;6.13;;;4.63;;
31347;SDS011;21711;49.708;18.568;2022-09-09T05:26:52;8.07;;;4.53;;
31347;SDS011;21711;49.708;18.568;2022-09-09T05:29:20;6.45;;;4.90;;
31347;SDS011;21711;49.708;18.568;2022-09-09T05:31:47;8.23;;;5.20;;
31347;SDS011;21711;49.708;18.568;2022-09-09T05:34:18;4.68;;;4.00;;
31347;SDS011;21711;49.708;18.568;2022-09-09T05:36:47;4.80;;;3.15;;
31347;SDS011;21711;49.708;18.568;2022-09-09T05:39:15;4.22;;;2.55;;
31347;SDS011;21711;49.708;18.568;2022-09-09T05:41:42;3.22;;;2.10;;
31347;SDS011;21711;49.708;18.568;2022-09-09T05:44:09;4.28;;;2.22;;
31347;SDS011;21711;49.708;18.568;2022-09-09T05:46:38;1.95;;;1.80;;
31347;SDS011;21711;49.708;18.568;2022-09-09T05:49:06;3.22;;;2.75;;
31347;SDS011;21711;49.708;18.568;2022-09-09T05:51:35;3.55;;;2.20;;
31347;SDS011;21711;49.708;18.568;2022-09-09T05:54:07;3.60;;;2.10;;
31347;SDS011;21711;49.708;18.568;2022-09-09T05:56:40;2.10;;;1.92;;
31347;SDS011;21711;49.708;18.568;2022-09-09T05:59:07;3.97;;;2.40;;
31347;SDS011;21711;49.708;18.568;2022-09-09T06:01:35;5.18;;;2.20;;
31347;SDS011;21711;49.708;18.568;2022-09-09T06:04:09;2.88;;;2.50;;
31347;SDS011;21711;49.708;18.568;2022-09-09T06:06:38;2.78;;;2.25;;
31347;SDS011;21711;49.708;18.568;2022-09-09T06:09:15;2.33;;;2.10;;
31347;SDS011;21711;49.708;18.568;2022-09-09T06:11:43;3.50;;;2.20;;
31347;SDS011;21711;49.708;18.568;2022-09-09T06:14:12;4.78;;;2.15;;
31347;SDS011;21711;49.708;18.568;2022-09-09T06:16:39;2.40;;;2.20;;
31347;SDS011;21711;49.708;18.568;2022-09-09T06:19:26;4.25;;;1.80;;
31347;SDS011;21711;49.708;18.568;2022-09-09T06:21:56;2.25;;;1.88;;
31347;SDS011;21711;49.708;18.568;2022-09-09T06:24:23;3.00;;;2.20;;
31347;SDS011;21711;49.708;18.568;2022-09-09T06:26:51;5.30;;;1.95;;
31347;SDS011;21711;49.708;18.568;2022-09-09T06:29:22;2.50;;;2.30;;
31347;SDS011;21711;49.708;18.568;2022-09-09T06:31:50;7.47;;;1.73;;
31347;SDS011;21711;49.708;18.568;2022-09-09T06:34:22;1.90;;;1.52;;
31347;SDS011;21711;49.708;18.568;2022-09-09T06:36:54;2.35;;;1.88;;
31347;SDS011;21711;49.708;18.568;2022-09-09T06:39:22;2.60;;;1.30;;
31347;SDS011;21711;49.708;18.568;2022-09-09T06:41:49;3.75;;;1.58;;
31347;SDS011;21711;49.708;18.568;2022-09-09T06:44:38;6.55;;;1.70;;
31347;SDS011;21711;49.708;18.568;2022-09-09T06:47:10;1.75;;;1.52;;
31347;SDS011;21711;49.708;18.568;2022-09-09T06:49:39;2.88;;;1.85;;
31347;SDS011;21711;49.708;18.568;2022-09-09T06:52:09;1.70;;;1.27;;
31347;SDS011;21711;49.708;18.568;2022-09-09T06:54:37;1.67;;;1.58;;
31347;SDS011;21711;49.708;18.568;2022-09-09T06:57:05;3.35;;;3.13;;
31347;SDS011;21711;49.708;18.568;2022-09-09T06:59:54;2.65;;;1.40;;
31347;SDS011;21711;49.708;18.568;2022-09-09T07:02:23;4.22;;;1.25;;
31347;SDS011;21711;49.708;18.568;2022-09-09T07:04:52;7.50;;;2.45;;
31347;SDS011;21711;49.708;18.568;2022-09-09T07:07:19;2.50;;;1.38;;
31347;SDS011;21711;49.708;18.568;2022-09-09T07:09:46;2.50;;;1.20;;
31347;SDS011;21711;49.708;18.568;2022-09-09T07:12:15;3.97;;;1.30;;
31347;SDS011;21711;49.708;18.568;2022-09-09T07:14:50;2.05;;;1.63;;
31347;SDS011;21711;49.708;18.568;2022-09-09T07:17:17;1.63;;;1.42;;
31347;SDS011;21711;49.708;18.568;2022-09-09T07:19:45;4.50;;;1.73;;
31347;SDS011;21711;49.708;18.568;2022-09-09T07:22:14;3.20;;;1.42;;
31347;SDS011;21711;49.708;18.568;2022-09-09T07:24:42;1.45;;;1.35;;
31347;SDS011;21711;49.708;18.568;2022-09-09T07:27:12;1.85;;;1.15;;
31347;SDS011;21711;49.708;18.568;2022-09-09T07:29:40;2.42;;;1.10;;
31347;SDS011;21711;49.708;18.568;2022-09-09T07:32:08;1.73;;;1.00;;
31347;SDS011;21711;49.708;18.568;2022-09-09T07:34:37;1.40;;;1.25;;
31347;SDS011;21711;49.708;18.568;2022-09-09T07:37:04;1.48;;;1.38;;
31347;SDS011;21711;49.708;18.568;2022-09-09T07:39:33;4.85;;;1.92;;
31347;SDS011;21711;49.708;18.568;2022-09-09T07:42:00;1.80;;;1.52;;
31347;SDS011;21711;49.708;18.568;2022-09-09T07:44:28;3.67;;;1.67;;
31347;SDS011;21711;49.708;18.568;2022-09-09T07:47:03;2.95;;;1.40;;
31347;SDS011;21711;49.708;18.568;2022-09-09T07:49:37;2.25;;;1.35;;
31347;SDS011;21711;49.708;18.568;2022-09-09T07:52:06;1.67;;;1.27;;
31347;SDS011;21711;49.708;18.568;2022-09-09T07:54:36;1.30;;;1.20;;
31347;SDS011;21711;49.708;18.568;2022-09-09T07:57:05;1.23;;;1.00;;
31347;SDS011;21711;49.708;18.568;2022-09-09T07:59:35;2.05;;;1.33;;
31347;SDS011;21711;49.708;18.568;2022-09-09T08:02:02;1.33;;;1.10;;
31347;SDS011;21711;49.708;18.568;2022-09-09T08:04:33;1.50;;;1.15;;
31347;SDS011;21711;49.708;18.568;2022-09-09T08:07:01;2.58;;;1.10;;
31347;SDS011;21711;49.708;18.568;2022-09-09T08:09:35;3.05;;;1.27;;
31347;SDS011;21711;49.708;18.568;2022-09-09T08:12:11;1.63;;;1.13;;
31347;SDS011;21711;49.708;18.568;2022-09-09T08:14:39;3.17;;;1.25;;
31347;SDS011;21711;49.708;18.568;2022-09-09T08:17:06;1.90;;;1.15;;
31347;SDS011;21711;49.708;18.568;2022-09-09T08:19:34;2.25;;;1.40;;
31347;SDS011;21711;49.708;18.568;2022-09-09T08:22:07;1.67;;;1.52;;
31347;SDS011;21711;49.708;18.568;2022-09-09T08:24:37;4.00;;;1.30;;
31347;SDS011;21711;49.708;18.568;2022-09-09T08:27:06;2.08;;;1.20;;
31347;SDS011;21711;49.708;18.568;2022-09-09T08:29:33;1.58;;;1.08;;
31347;SDS011;21711;49.708;18.568;2022-09-09T08:32:01;2.25;;;0.90;;
31347;SDS011;21711;49.708;18.568;2022-09-09T08:34:29;1.30;;;1.20;;
31347;SDS011;21711;49.708;18.568;2022-09-09T08:37:02;2.15;;;0.90;;
31347;SDS011;21711;49.708;18.568;2022-09-09T08:39:34;8.25;;;1.05;;
31347;SDS011;21711;49.708;18.568;2022-09-09T08:45:16;2.40;;;0.63;;
31347;SDS011;21711;49.708;18.568;2022-09-09T08:51:30;1.00;;;0.70;;
31347;SDS011;21711;49.708;18.568;2022-09-09T08:56:31;0.82;;;0.70;;
31347;SDS011;21711;49.708;18.568;2022-09-09T08:59:01;0.85;;;0.70;;
31347;SDS011;21711;49.708;18.568;2022-09-09T09:05:00;1.77;;;1.00;;
31347;SDS011;21711;49.708;18.568;2022-09-09T09:10:48;0.85;;;0.70;;
31347;SDS011;21711;49.708;18.568;2022-09-09T09:13:26;1.15;;;0.70;;
31347;SDS011;21711;49.708;18.568;2022-09-09T09:19:00;1.00;;;0.90;;
31347;SDS011;21711;49.708;18.568;2022-09-09T09:21:38;3.85;;;1.00;;
31347;SDS011;21711;49.708;18.568;2022-09-09T09:24:13;2.00;;;0.88;;
31347;SDS011;21711;49.708;18.568;2022-09-09T09:26:49;1.65;;;1.02;;
31347;SDS011;21711;49.708;18.568;2022-09-09T09:29:19;1.48;;;0.90;;
31347;SDS011;21711;49.708;18.568;2022-09-09T09:31:51;1.23;;;0.95;;
31347;SDS011;21711;49.708;18.568;2022-09-09T09:34:23;1.70;;;1.00;;
31347;SDS011;21711;49.708;18.568;2022-09-09T09:36:53;1.33;;;1.00;;
31347;SDS011;21711;49.708;18.568;2022-09-09T09:39:30;0.80;;;0.80;;
31347;SDS011;21711;49.708;18.568;2022-09-09T09:42:25;0.88;;;0.88;;
31347;SDS011;21711;49.708;18.568;2022-09-09T09:44:55;3.08;;;0.90;;
31347;SDS011;21711;49.708;18.568;2022-09-09T09:47:23;1.80;;;0.90;;
31347;SDS011;21711;49.708;18.568;2022-09-09T09:50:16;1.00;;;0.90;;
31347;SDS011;21711;49.708;18.568;2022-09-09T09:53:00;1.65;;;0.82;;
31347;SDS011;21711;49.708;18.568;2022-09-09T09:55:44;2.60;;;1.02;;
31347;SDS011;21711;49.708;18.568;2022-09-09T09:58:21;0.85;;;0.82;;
31347;SDS011;21711;49.708;18.568;2022-09-09T10:00:50;1.10;;;1.00;;
31347;SDS011;21711;49.708;18.568;2022-09-09T10:03:28;1.13;;;0.80;;
31347;SDS011;21711;49.708;18.568;2022-09-09T10:06:07;1.92;;;0.93;;
31347;SDS011;21711;49.708;18.568;2022-09-09T10:08:43;0.80;;;0.80;;
31347;SDS011;21711;49.708;18.568;2022-09-09T10:17:20;2.05;;;0.70;;
31347;SDS011;21711;49.708;18.568;2022-09-09T10:20:24;1.52;;;1.13;;
31347;SDS011;21711;49.708;18.568;2022-09-09T10:23:10;1.25;;;0.90;;
31347;SDS011;21711;49.708;18.568;2022-09-09T10:34:55;1.05;;;0.70;;
31347;SDS011;21711;49.708;18.568;2022-09-09T10:42:51;0.95;;;0.77;;
31347;SDS011;21711;49.708;18.568;2022-09-09T10:45:46;2.67;;;1.27;;
31347;SDS011;21711;49.708;18.568;2022-09-09T10:48:31;1.70;;;0.80;;
31347;SDS011;21711;49.708;18.568;2022-09-09T11:00:53;0.80;;;0.80;;
31347;SDS011;21711;49.708;18.568;2022-09-09T11:03:24;1.63;;;1.10;;
31347;SDS011;21711;49.708;18.568;2022-09-09T11:06:04;0.68;;;0.60;;
31347;SDS011;21711;49.708;18.568;2022-09-09T11:08:38;1.52;;;0.82;;
31347;SDS011;21711;49.708;18.568;2022-09-09T11:14:22;0.93;;;0.82;;
31347;SDS011;21711;49.708;18.568;2022-09-09T11:17:16;0.80;;;0.80;;
31347;SDS011;21711;49.708;18.568;2022-09-09T11:19:50;1.75;;;1.13;;
31347;SDS011;21711;49.708;18.568;2022-09-09T11:25:10;1.05;;;0.73;;
31347;SDS011;21711;49.708;18.568;2022-09-09T11:39:13;1.13;;;0.70;;
31347;SDS011;21711;49.708;18.568;2022-09-09T11:42:15;1.67;;;0.80;;
31347;SDS011;21711;49.708;18.568;2022-09-09T11:44:47;1.05;;;0.70;;
31347;SDS011;21711;49.708;18.568;2022-09-09T11:47:22;1.77;;;1.10;;
31347;SDS011;21711;49.708;18.568;2022-09-09T11:52:45;0.70;;;0.60;;
31347;SDS011;21711;49.708;18.568;2022-09-09T11:57:57;3.58;;;0.82;;
31347;SDS011;21711;49.708;18.568;2022-09-09T12:00:44;1.40;;;0.80;;
31347;SDS011;21711;49.708;18.568;2022-09-09T12:06:14;0.75;;;0.73;;
31347;SDS011;21711;49.708;18.568;2022-09-09T12:09:08;1.60;;;0.80;;
31347;SDS011;21711;49.708;18.568;2022-09-09T12:12:40;3.50;;;1.02;;
31347;SDS011;21711;49.708;18.568;2022-09-09T12:20:03;2.83;;;0.90;;
31347;SDS011;21711;49.708;18.568;2022-09-09T12:25:53;2.35;;;0.80;;
31347;SDS011;21711;49.708;18.568;2022-09-09T12:32:07;1.70;;;0.80;;
31347;SDS011;21711;49.708;18.568;2022-09-09T12:34:41;3.08;;;0.77;;
31347;SDS011;21711;49.708;18.568;2022-09-09T12:42:24;0.60;;;0.60;;
31347;SDS011;21711;49.708;18.568;2022-09-09T12:44:57;2.55;;;0.77;;
31347;SDS011;21711;49.708;18.568;2022-09-09T12:47:34;1.67;;;0.60;;
31347;SDS011;21711;49.708;18.568;2022-09-09T12:52:53;1.38;;;0.88;;
31347;SDS011;21711;49.708;18.568;2022-09-09T12:55:28;2.92;;;0.60;;
31347;SDS011;21711;49.708;18.568;2022-09-09T12:58:04;4.68;;;0.70;;
31347;SDS011;21711;49.708;18.568;2022-09-09T13:00:33;2.40;;;0.73;;
31347;SDS011;21711;49.708;18.568;2022-09-09T13:03:02;3.90;;;0.70;;
31347;SDS011;21711;49.708;18.568;2022-09-09T13:05:44;0.85;;;0.50;;
31347;SDS011;21711;49.708;18.568;2022-09-09T13:08:13;1.70;;;0.60;;
31347;SDS011;21711;49.708;18.568;2022-09-09T13:13:38;1.92;;;0.52;;
31347;SDS011;21711;49.708;18.568;2022-09-09T13:16:18;3.67;;;0.60;;
31347;SDS011;21711;49.708;18.568;2022-09-09T13:19:07;1.23;;;0.50;;
31347;SDS011;21711;49.708;18.568;2022-09-09T13:21:42;0.40;;;0.30;;
31347;SDS011;21711;49.708;18.568;2022-09-09T13:27:03;0.65;;;0.40;;
31347;SDS011;21711;49.708;18.568;2022-09-09T13:29:51;2.90;;;1.23;;
31347;SDS011;21711;49.708;18.568;2022-09-09T13:32:24;0.98;;;0.57;;
31347;SDS011;21711;49.708;18.568;2022-09-09T13:34:58;1.55;;;0.50;;
31347;SDS011;21711;49.708;18.568;2022-09-09T13:37:30;0.93;;;0.40;;
31347;SDS011;21711;49.708;18.568;2022-09-09T13:40:17;1.60;;;0.55;;
31347;SDS011;21711;49.708;18.568;2022-09-09T13:42:47;0.95;;;0.43;;
31347;SDS011;21711;49.708;18.568;2022-09-09T13:45:22;1.45;;;0.52;;
31347;SDS011;21711;49.708;18.568;2022-09-09T13:47:53;0.85;;;0.60;;
31347;SDS011;21711;49.708;18.568;2022-09-09T13:50:23;3.63;;;0.47;;
31347;SDS011;21711;49.708;18.568;2022-09-09T13:52:57;0.30;;;0.30;;
31347;SDS011;21711;49.708;18.568;2022-09-09T13:55:36;1.20;;;0.50;;
31347;SDS011;21711;49.708;18.568;2022-09-09T13:58:04;1.77;;;0.55;;
31347;SDS011;21711;49.708;18.568;2022-09-09T14:00:34;0.88;;;0.50;;
31347;SDS011;21711;49.708;18.568;2022-09-09T14:03:01;1.48;;;0.60;;
31347;SDS011;21711;49.708;18.568;2022-09-09T14:05:30;3.40;;;1.80;;
31347;SDS011;21711;49.708;18.568;2022-09-09T14:07:59;3.15;;;0.60;;
31347;SDS011;21711;49.708;18.568;2022-09-09T14:10:27;0.88;;;0.55;;
31347;SDS011;21711;49.708;18.568;2022-09-09T14:12:54;1.00;;;0.32;;
31347;SDS011;21711;49.708;18.568;2022-09-09T14:15:22;2.20;;;0.40;;
31347;SDS011;21711;49.708;18.568;2022-09-09T14:17:50;1.90;;;0.50;;
31347;SDS011;21711;49.708;18.568;2022-09-09T14:20:18;0.50;;;0.32;;
31347;SDS011;21711;49.708;18.568;2022-09-09T14:22:46;1.75;;;0.60;;
31347;SDS011;21711;49.708;18.568;2022-09-09T14:25:13;2.28;;;0.65;;
31347;SDS011;21711;49.708;18.568;2022-09-09T14:27:41;0.60;;;0.40;;
31347;SDS011;21711;49.708;18.568;2022-09-09T14:30:09;1.95;;;0.50;;
31347;SDS011;21711;49.708;18.568;2022-09-09T14:32:36;2.08;;;0.65;;
31347;SDS011;21711;49.708;18.568;2022-09-09T14:35:04;0.40;;;0.30;;
31347;SDS011;21711;49.708;18.568;2022-09-09T14:37:32;2.35;;;0.63;;
31347;SDS011;21711;49.708;18.568;2022-09-09T14:39:59;2.60;;;0.60;;
31347;SDS011;21711;49.708;18.568;2022-09-09T14:42:26;0.73;;;0.50;;
31347;SDS011;21711;49.708;18.568;2022-09-09T14:44:55;2.10;;;0.60;;
31347;SDS011;21711;49.708;18.568;2022-09-09T14:47:23;4.65;;;0.60;;
31347;SDS011;21711;49.708;18.568;2022-09-09T14:49:50;0.90;;;0.60;;
31347;SDS011;21711;49.708;18.568;2022-09-09T14:52:18;0.57;;;0.40;;
31347;SDS011;21711;49.708;18.568;2022-09-09T14:54:45;0.85;;;0.43;;
31347;SDS011;21711;49.708;18.568;2022-09-09T14:57:12;1.20;;;0.50;;
31347;SDS011;21711;49.708;18.568;2022-09-09T14:59:40;3.65;;;0.60;;
31347;SDS011;21711;49.708;18.568;2022-09-09T15:02:08;4.45;;;0.65;;
31347;SDS011;21711;49.708;18.568;2022-09-09T15:04:39;2.53;;;0.60;;
31347;SDS011;21711;49.708;18.568;2022-09-09T15:07:06;0.75;;;0.50;;
31347;SDS011;21711;49.708;18.568;2022-09-09T15:09:34;0.77;;;0.50;;
31347;SDS011;21711;49.708;18.568;2022-09-09T15:12:03;1.92;;;0.60;;
31347;SDS011;21711;49.708;18.568;2022-09-09T15:14:31;1.67;;;0.43;;
31347;SDS011;21711;49.708;18.568;2022-09-09T15:16:59;3.47;;;0.80;;
31347;SDS011;21711;49.708;18.568;2022-09-09T15:19:26;1.85;;;0.77;;
31347;SDS011;21711;49.708;18.568;2022-09-09T15:21:53;1.40;;;0.60;;
31347;SDS011;21711;49.708;18.568;2022-09-09T15:24:21;4.45;;;0.82;;
31347;SDS011;21711;49.708;18.568;2022-09-09T15:26:48;1.75;;;0.57;;
31347;SDS011;21711;49.708;18.568;2022-09-09T15:29:16;0.60;;;0.50;;
31347;SDS011;21711;49.708;18.568;2022-09-09T15:31:43;0.90;;;0.60;;
31347;SDS011;21711;49.708;18.568;2022-09-09T15:34:10;1.90;;;0.63;;
31347;SDS011;21711;49.708;18.568;2022-09-09T15:36:40;4.00;;;0.40;;
31347;SDS011;21711;49.708;18.568;2022-09-09T15:39:15;3.13;;;0.50;;
31347;SDS011;21711;49.708;18.568;2022-09-09T15:41:45;5.18;;;0.70;;
31347;SDS011;21711;49.708;18.568;2022-09-09T15:44:14;1.25;;;0.60;;
31347;SDS011;21711;49.708;18.568;2022-09-09T15:46:43;1.33;;;0.57;;
31347;SDS011;21711;49.708;18.568;2022-09-09T15:51:52;2.95;;;0.75;;
31347;SDS011;21711;49.708;18.568;2022-09-09T15:54:24;0.80;;;0.60;;
31347;SDS011;21711;49.708;18.568;2022-09-09T15:56:53;2.00;;;0.60;;
31347;SDS011;21711;49.708;18.568;2022-09-09T15:59:27;1.20;;;0.70;;
31347;SDS011;21711;49.708;18.568;2022-09-09T16:01:57;6.40;;;0.88;;
31347;SDS011;21711;49.708;18.568;2022-09-09T16:04:26;2.67;;;0.80;;
31347;SDS011;21711;49.708;18.568;2022-09-09T16:06:57;4.40;;;1.90;;
31347;SDS011;21711;49.708;18.568;2022-09-09T16:09:27;4.50;;;0.90;;
31347;SDS011;21711;49.708;18.568;2022-09-09T16:11:59;3.53;;;1.20;;
31347;SDS011;21711;49.708;18.568;2022-09-09T16:14:28;3.88;;;1.30;;
31347;SDS011;21711;49.708;18.568;2022-09-09T16:17:00;5.43;;;1.88;;
31347;SDS011;21711;49.708;18.568;2022-09-09T16:19:29;2.17;;;1.10;;
31347;SDS011;21711;49.708;18.568;2022-09-09T16:21:56;2.28;;;1.20;;
31347;SDS011;21711;49.708;18.568;2022-09-09T16:24:24;7.43;;;3.03;;
31347;SDS011;21711;49.708;18.568;2022-09-09T16:26:53;2.15;;;1.25;;
31347;SDS011;21711;49.708;18.568;2022-09-09T16:29:21;1.63;;;1.17;;
31347;SDS011;21711;49.708;18.568;2022-09-09T16:31:50;2.70;;;1.02;;
31347;SDS011;21711;49.708;18.568;2022-09-09T16:34:18;43.35;;;3.42;;
31347;SDS011;21711;49.708;18.568;2022-09-09T16:36:46;3.30;;;1.23;;
31347;SDS011;21711;49.708;18.568;2022-09-09T16:39:16;5.00;;;1.65;;
31347;SDS011;21711;49.708;18.568;2022-09-09T16:42:01;1.92;;;1.27;;
31347;SDS011;21711;49.708;18.568;2022-09-09T16:44:29;3.53;;;1.98;;
31347;SDS011;21711;49.708;18.568;2022-09-09T16:46:56;5.55;;;1.85;;
31347;SDS011;21711;49.708;18.568;2022-09-09T16:49:26;5.90;;;1.60;;
31347;SDS011;21711;49.708;18.568;2022-09-09T16:51:56;4.32;;;1.52;;
31347;SDS011;21711;49.708;18.568;2022-09-09T16:54:25;3.53;;;1.63;;
31347;SDS011;21711;49.708;18.568;2022-09-09T16:56:53;3.20;;;1.98;;
31347;SDS011;21711;49.708;18.568;2022-09-09T16:59:21;1.80;;;1.20;;
31347;SDS011;21711;49.708;18.568;2022-09-09T17:01:50;2.13;;;0.95;;
31347;SDS011;21711;49.708;18.568;2022-09-09T17:04:20;3.45;;;0.90;;
31347;SDS011;21711;49.708;18.568;2022-09-09T17:06:52;3.60;;;0.77;;
31347;SDS011;21711;49.708;18.568;2022-09-09T17:09:21;1.58;;;1.05;;
31347;SDS011;21711;49.708;18.568;2022-09-09T17:11:49;3.63;;;1.23;;
31347;SDS011;21711;49.708;18.568;2022-09-09T17:14:19;4.47;;;1.10;;
31347;SDS011;21711;49.708;18.568;2022-09-09T17:16:48;2.88;;;1.02;;
31347;SDS011;21711;49.708;18.568;2022-09-09T17:19:16;3.97;;;1.25;;
31347;SDS011;21711;49.708;18.568;2022-09-09T17:21:44;3.67;;;1.27;;
31347;SDS011;21711;49.708;18.568;2022-09-09T17:24:33;2.22;;;1.20;;
31347;SDS011;21711;49.708;18.568;2022-09-09T17:27:01;7.18;;;1.30;;
31347;SDS011;21711;49.708;18.568;2022-09-09T17:29:30;14.95;;;2.75;;